sensor_id;sensor_type;location;lat;lon;timestamp;P1;durP1;ratioP1;P2;durP2;ratioP2
40871;SDS011;26591;43.264;26.940;2022-07-11T00:00:06;5.03;;;4.53;;
40871;SDS011;26591;43.264;26.940;2022-07-11T00:02:34;8.32;;;5.05;;
40871;SDS011;26591;43.264;26.940;2022-07-11T00:05:00;7.60;;;4.90;;
40871;SDS011;26591;43.264;26.940;2022-07-11T00:07:29;6.30;;;4.45;;
40871;SDS011;26591;43.264;26.940;2022-07-11T00:09:55;7.97;;;4.70;;
40871;SDS011;26591;43.264;26.940;2022-07-11T00:12:20;6.72;;;4.97;;
40871;SDS011;26591;43.264;26.940;2022-07-11T00:14:47;6.40;;;4.78;;
40871;SDS011;26591;43.264;26.940;2022-07-11T00:17:15;6.65;;;5.03;;
40871;SDS011;26591;43.264;26.940;2022-07-11T00:19:40;6.47;;;4.80;;
40871;SDS011;26591;43.264;26.940;2022-07-11T00:22:06;7.82;;;4.82;;
40871;SDS011;26591;43.264;26.940;2022-07-11T00:24:32;7.43;;;4.28;;
40871;SDS011;26591;43.264;26.940;2022-07-11T00:26:58;5.03;;;4.47;;
40871;SDS011;26591;43.264;26.940;2022-07-11T00:29:24;6.03;;;4.55;;
40871;SDS011;26591;43.264;26.940;2022-07-11T00:31:49;5.47;;;4.85;;
40871;SDS011;26591;43.264;26.940;2022-07-11T00:34:15;4.70;;;4.13;;
40871;SDS011;26591;43.264;26.940;2022-07-11T00:36:42;9.35;;;4.53;;
40871;SDS011;26591;43.264;26.940;2022-07-11T00:39:08;6.05;;;4.57;;
40871;SDS011;26591;43.264;26.940;2022-07-11T00:41:34;5.05;;;4.40;;
40871;SDS011;26591;43.264;26.940;2022-07-11T00:43:59;9.43;;;4.93;;
40871;SDS011;26591;43.264;26.940;2022-07-11T00:46:26;7.93;;;4.30;;
40871;SDS011;26591;43.264;26.940;2022-07-11T00:48:54;6.00;;;4.35;;
40871;SDS011;26591;43.264;26.940;2022-07-11T00:51:20;4.63;;;4.15;;
40871;SDS011;26591;43.264;26.940;2022-07-11T00:53:50;4.75;;;4.10;;
40871;SDS011;26591;43.264;26.940;2022-07-11T00:58:44;6.25;;;4.28;;
40871;SDS011;26591;43.264;26.940;2022-07-11T01:01:10;7.80;;;3.92;;
40871;SDS011;26591;43.264;26.940;2022-07-11T01:03:36;4.68;;;4.22;;
40871;SDS011;26591;43.264;26.940;2022-07-11T01:06:05;8.48;;;4.00;;
40871;SDS011;26591;43.264;26.940;2022-07-11T01:08:33;6.72;;;4.22;;
40871;SDS011;26591;43.264;26.940;2022-07-11T01:11:04;6.65;;;3.80;;
40871;SDS011;26591;43.264;26.940;2022-07-11T01:13:30;7.32;;;4.78;;
40871;SDS011;26591;43.264;26.940;2022-07-11T01:18:44;4.55;;;3.85;;
40871;SDS011;26591;43.264;26.940;2022-07-11T01:21:17;5.55;;;4.00;;
40871;SDS011;26591;43.264;26.940;2022-07-11T01:26:21;5.20;;;4.13;;
40871;SDS011;26591;43.264;26.940;2022-07-11T01:28:47;5.97;;;4.20;;
40871;SDS011;26591;43.264;26.940;2022-07-11T01:31:13;4.32;;;3.92;;
40871;SDS011;26591;43.264;26.940;2022-07-11T01:33:39;5.18;;;3.53;;
40871;SDS011;26591;43.264;26.940;2022-07-11T01:36:05;6.18;;;4.28;;
40871;SDS011;26591;43.264;26.940;2022-07-11T01:38:31;5.85;;;4.22;;
40871;SDS011;26591;43.264;26.940;2022-07-11T01:40:57;5.78;;;4.25;;
40871;SDS011;26591;43.264;26.940;2022-07-11T01:43:23;4.68;;;4.28;;
40871;SDS011;26591;43.264;26.940;2022-07-11T01:45:53;6.40;;;3.78;;
40871;SDS011;26591;43.264;26.940;2022-07-11T01:48:19;7.67;;;4.57;;
40871;SDS011;26591;43.264;26.940;2022-07-11T01:50:46;4.95;;;3.90;;
40871;SDS011;26591;43.264;26.940;2022-07-11T01:53:13;4.32;;;3.78;;
40871;SDS011;26591;43.264;26.940;2022-07-11T01:55:39;4.47;;;3.83;;
40871;SDS011;26591;43.264;26.940;2022-07-11T01:58:05;6.47;;;3.97;;
40871;SDS011;26591;43.264;26.940;2022-07-11T02:00:31;4.80;;;3.78;;
40871;SDS011;26591;43.264;26.940;2022-07-11T02:02:57;4.85;;;3.63;;
40871;SDS011;26591;43.264;26.940;2022-07-11T02:05:22;7.65;;;3.50;;
40871;SDS011;26591;43.264;26.940;2022-07-11T02:07:48;6.07;;;4.10;;
40871;SDS011;26591;43.264;26.940;2022-07-11T02:10:32;8.35;;;3.58;;
40871;SDS011;26591;43.264;26.940;2022-07-11T02:12:58;5.00;;;3.60;;
40871;SDS011;26591;43.264;26.940;2022-07-11T02:15:25;4.97;;;3.67;;
40871;SDS011;26591;43.264;26.940;2022-07-11T02:17:51;4.53;;;3.67;;
40871;SDS011;26591;43.264;26.940;2022-07-11T02:20:18;4.85;;;3.40;;
40871;SDS011;26591;43.264;26.940;2022-07-11T02:22:44;4.43;;;3.97;;
40871;SDS011;26591;43.264;26.940;2022-07-11T02:25:10;5.80;;;3.53;;
40871;SDS011;26591;43.264;26.940;2022-07-11T02:27:35;5.93;;;3.38;;
40871;SDS011;26591;43.264;26.940;2022-07-11T02:30:01;7.25;;;4.03;;
40871;SDS011;26591;43.264;26.940;2022-07-11T02:32:27;4.50;;;3.20;;
40871;SDS011;26591;43.264;26.940;2022-07-11T02:34:52;5.88;;;3.42;;
40871;SDS011;26591;43.264;26.940;2022-07-11T02:37:18;8.07;;;3.70;;
40871;SDS011;26591;43.264;26.940;2022-07-11T02:39:44;7.28;;;3.70;;
40871;SDS011;26591;43.264;26.940;2022-07-11T02:42:10;6.32;;;3.60;;
40871;SDS011;26591;43.264;26.940;2022-07-11T02:44:36;4.82;;;3.42;;
40871;SDS011;26591;43.264;26.940;2022-07-11T02:47:02;7.10;;;3.47;;
40871;SDS011;26591;43.264;26.940;2022-07-11T02:49:28;6.93;;;3.70;;
40871;SDS011;26591;43.264;26.940;2022-07-11T02:51:55;5.93;;;3.20;;
40871;SDS011;26591;43.264;26.940;2022-07-11T02:54:21;12.57;;;3.65;;
40871;SDS011;26591;43.264;26.940;2022-07-11T02:56:47;5.15;;;3.00;;
40871;SDS011;26591;43.264;26.940;2022-07-11T02:59:13;8.52;;;3.75;;
40871;SDS011;26591;43.264;26.940;2022-07-11T03:01:38;4.55;;;3.50;;
40871;SDS011;26591;43.264;26.940;2022-07-11T03:04:06;10.80;;;3.65;;
40871;SDS011;26591;43.264;26.940;2022-07-11T03:06:35;5.60;;;3.70;;
40871;SDS011;26591;43.264;26.940;2022-07-11T03:09:04;4.55;;;3.45;;
40871;SDS011;26591;43.264;26.940;2022-07-11T03:11:33;6.50;;;3.70;;
40871;SDS011;26591;43.264;26.940;2022-07-11T03:13:59;5.13;;;3.20;;
40871;SDS011;26591;43.264;26.940;2022-07-11T03:16:26;7.55;;;3.40;;
40871;SDS011;26591;43.264;26.940;2022-07-11T03:18:52;9.27;;;2.88;;
40871;SDS011;26591;43.264;26.940;2022-07-11T03:21:18;4.95;;;2.92;;
40871;SDS011;26591;43.264;26.940;2022-07-11T03:23:43;9.60;;;3.35;;
40871;SDS011;26591;43.264;26.940;2022-07-11T03:26:09;5.93;;;2.80;;
40871;SDS011;26591;43.264;26.940;2022-07-11T03:28:34;6.40;;;3.10;;
40871;SDS011;26591;43.264;26.940;2022-07-11T03:31:00;11.60;;;2.60;;
40871;SDS011;26591;43.264;26.940;2022-07-11T03:33:26;4.38;;;2.67;;
40871;SDS011;26591;43.264;26.940;2022-07-11T03:35:52;5.50;;;2.90;;
40871;SDS011;26591;43.264;26.940;2022-07-11T03:38:18;4.40;;;2.40;;
40871;SDS011;26591;43.264;26.940;2022-07-11T03:40:45;3.92;;;2.50;;
40871;SDS011;26591;43.264;26.940;2022-07-11T03:43:12;7.50;;;2.47;;
40871;SDS011;26591;43.264;26.940;2022-07-11T03:45:39;5.93;;;2.30;;
40871;SDS011;26591;43.264;26.940;2022-07-11T03:48:05;6.10;;;2.15;;
40871;SDS011;26591;43.264;26.940;2022-07-11T03:50:32;5.95;;;2.75;;
40871;SDS011;26591;43.264;26.940;2022-07-11T03:52:57;7.15;;;2.83;;
40871;SDS011;26591;43.264;26.940;2022-07-11T03:55:24;6.78;;;2.92;;
40871;SDS011;26591;43.264;26.940;2022-07-11T03:57:49;4.63;;;3.20;;
40871;SDS011;26591;43.264;26.940;2022-07-11T04:00:15;7.00;;;3.22;;
40871;SDS011;26591;43.264;26.940;2022-07-11T04:02:41;13.45;;;2.92;;
40871;SDS011;26591;43.264;26.940;2022-07-11T04:05:07;9.25;;;2.85;;
40871;SDS011;26591;43.264;26.940;2022-07-11T04:07:33;20.25;;;2.75;;
40871;SDS011;26591;43.264;26.940;2022-07-11T04:09:59;6.07;;;2.10;;
40871;SDS011;26591;43.264;26.940;2022-07-11T04:12:25;3.78;;;2.05;;
40871;SDS011;26591;43.264;26.940;2022-07-11T04:14:51;6.35;;;2.30;;
40871;SDS011;26591;43.264;26.940;2022-07-11T04:17:16;6.88;;;2.40;;
40871;SDS011;26591;43.264;26.940;2022-07-11T04:19:42;9.45;;;2.22;;
40871;SDS011;26591;43.264;26.940;2022-07-11T04:22:09;7.15;;;2.08;;
40871;SDS011;26591;43.264;26.940;2022-07-11T04:24:34;5.05;;;1.95;;
40871;SDS011;26591;43.264;26.940;2022-07-11T04:27:00;3.55;;;1.95;;
40871;SDS011;26591;43.264;26.940;2022-07-11T04:29:26;4.75;;;2.17;;
40871;SDS011;26591;43.264;26.940;2022-07-11T04:31:52;8.18;;;2.03;;
40871;SDS011;26591;43.264;26.940;2022-07-11T04:34:18;3.67;;;1.80;;
40871;SDS011;26591;43.264;26.940;2022-07-11T04:36:44;5.65;;;1.90;;
40871;SDS011;26591;43.264;26.940;2022-07-11T04:39:11;3.72;;;2.00;;
40871;SDS011;26591;43.264;26.940;2022-07-11T04:41:37;5.18;;;2.20;;
40871;SDS011;26591;43.264;26.940;2022-07-11T04:44:02;10.43;;;3.40;;
40871;SDS011;26591;43.264;26.940;2022-07-11T04:46:28;2.92;;;1.88;;
40871;SDS011;26591;43.264;26.940;2022-07-11T04:48:55;8.10;;;2.25;;
40871;SDS011;26591;43.264;26.940;2022-07-11T04:51:21;4.05;;;2.20;;
40871;SDS011;26591;43.264;26.940;2022-07-11T04:53:46;4.55;;;2.20;;
40871;SDS011;26591;43.264;26.940;2022-07-11T04:56:12;4.80;;;3.13;;
40871;SDS011;26591;43.264;26.940;2022-07-11T04:58:39;5.80;;;1.85;;
40871;SDS011;26591;43.264;26.940;2022-07-11T05:01:04;3.45;;;2.28;;
40871;SDS011;26591;43.264;26.940;2022-07-11T05:03:30;3.78;;;2.20;;
40871;SDS011;26591;43.264;26.940;2022-07-11T05:05:57;5.60;;;2.10;;
40871;SDS011;26591;43.264;26.940;2022-07-11T05:08:23;5.70;;;2.33;;
40871;SDS011;26591;43.264;26.940;2022-07-11T05:10:48;5.90;;;2.42;;
40871;SDS011;26591;43.264;26.940;2022-07-11T05:13:14;5.97;;;2.55;;
40871;SDS011;26591;43.264;26.940;2022-07-11T05:15:39;4.40;;;2.20;;
40871;SDS011;26591;43.264;26.940;2022-07-11T05:18:05;3.65;;;2.17;;
40871;SDS011;26591;43.264;26.940;2022-07-11T05:20:31;4.70;;;2.33;;
40871;SDS011;26591;43.264;26.940;2022-07-11T05:22:57;3.60;;;2.15;;
40871;SDS011;26591;43.264;26.940;2022-07-11T05:25:23;5.38;;;2.13;;
40871;SDS011;26591;43.264;26.940;2022-07-11T05:27:50;6.95;;;3.00;;
40871;SDS011;26591;43.264;26.940;2022-07-11T05:30:16;4.50;;;2.22;;
40871;SDS011;26591;43.264;26.940;2022-07-11T05:32:42;8.98;;;3.92;;
40871;SDS011;26591;43.264;26.940;2022-07-11T05:35:08;3.58;;;2.15;;
40871;SDS011;26591;43.264;26.940;2022-07-11T05:37:34;6.45;;;2.00;;
40871;SDS011;26591;43.264;26.940;2022-07-11T05:40:00;4.15;;;2.20;;
40871;SDS011;26591;43.264;26.940;2022-07-11T05:42:25;3.85;;;2.08;;
40871;SDS011;26591;43.264;26.940;2022-07-11T05:44:51;8.15;;;2.08;;
40871;SDS011;26591;43.264;26.940;2022-07-11T05:47:17;5.10;;;2.42;;
40871;SDS011;26591;43.264;26.940;2022-07-11T05:49:42;7.28;;;2.65;;
40871;SDS011;26591;43.264;26.940;2022-07-11T05:52:08;3.58;;;2.20;;
40871;SDS011;26591;43.264;26.940;2022-07-11T05:54:34;3.40;;;2.30;;
40871;SDS011;26591;43.264;26.940;2022-07-11T05:57:00;7.43;;;2.53;;
40871;SDS011;26591;43.264;26.940;2022-07-11T05:59:29;13.00;;;3.53;;
40871;SDS011;26591;43.264;26.940;2022-07-11T06:01:55;12.18;;;2.30;;
40871;SDS011;26591;43.264;26.940;2022-07-11T06:04:21;4.47;;;2.17;;
40871;SDS011;26591;43.264;26.940;2022-07-11T06:06:47;6.22;;;2.38;;
40871;SDS011;26591;43.264;26.940;2022-07-11T06:09:13;7.85;;;2.38;;
40871;SDS011;26591;43.264;26.940;2022-07-11T06:11:39;3.90;;;2.30;;
40871;SDS011;26591;43.264;26.940;2022-07-11T06:14:04;8.85;;;2.63;;
40871;SDS011;26591;43.264;26.940;2022-07-11T06:16:31;7.95;;;2.42;;
40871;SDS011;26591;43.264;26.940;2022-07-11T06:18:57;5.53;;;2.10;;
40871;SDS011;26591;43.264;26.940;2022-07-11T06:21:23;3.38;;;2.05;;
40871;SDS011;26591;43.264;26.940;2022-07-11T06:23:52;5.40;;;4.38;;
40871;SDS011;26591;43.264;26.940;2022-07-11T06:26:20;6.07;;;2.28;;
40871;SDS011;26591;43.264;26.940;2022-07-11T06:28:46;5.50;;;2.30;;
40871;SDS011;26591;43.264;26.940;2022-07-11T06:31:12;2.80;;;2.15;;
40871;SDS011;26591;43.264;26.940;2022-07-11T06:33:38;5.05;;;2.05;;
40871;SDS011;26591;43.264;26.940;2022-07-11T06:36:05;5.47;;;2.20;;
40871;SDS011;26591;43.264;26.940;2022-07-11T06:38:31;7.68;;;2.25;;
40871;SDS011;26591;43.264;26.940;2022-07-11T06:40:58;6.45;;;2.08;;
40871;SDS011;26591;43.264;26.940;2022-07-11T06:43:24;6.32;;;2.30;;
40871;SDS011;26591;43.264;26.940;2022-07-11T06:45:50;5.60;;;2.47;;
40871;SDS011;26591;43.264;26.940;2022-07-11T06:48:16;3.60;;;2.33;;
40871;SDS011;26591;43.264;26.940;2022-07-11T06:50:42;7.38;;;2.33;;
40871;SDS011;26591;43.264;26.940;2022-07-11T06:53:08;6.80;;;2.23;;
40871;SDS011;26591;43.264;26.940;2022-07-11T06:55:34;5.38;;;2.38;;
40871;SDS011;26591;43.264;26.940;2022-07-11T06:58:00;5.05;;;2.15;;
40871;SDS011;26591;43.264;26.940;2022-07-11T07:00:26;7.28;;;2.08;;
40871;SDS011;26591;43.264;26.940;2022-07-11T07:02:55;5.93;;;2.28;;
40871;SDS011;26591;43.264;26.940;2022-07-11T07:05:22;4.25;;;2.30;;
40871;SDS011;26591;43.264;26.940;2022-07-11T07:10:17;3.47;;;1.95;;
40871;SDS011;26591;43.264;26.940;2022-07-11T07:12:43;4.97;;;2.45;;
40871;SDS011;26591;43.264;26.940;2022-07-11T07:15:09;3.85;;;2.25;;
40871;SDS011;26591;43.264;26.940;2022-07-11T07:17:36;6.05;;;1.77;;
40871;SDS011;26591;43.264;26.940;2022-07-11T07:20:02;2.17;;;1.70;;
40871;SDS011;26591;43.264;26.940;2022-07-11T07:22:29;4.65;;;2.00;;
40871;SDS011;26591;43.264;26.940;2022-07-11T07:24:55;3.63;;;2.00;;
40871;SDS011;26591;43.264;26.940;2022-07-11T07:27:21;4.60;;;2.05;;
40871;SDS011;26591;43.264;26.940;2022-07-11T07:29:50;5.03;;;1.90;;
40871;SDS011;26591;43.264;26.940;2022-07-11T07:32:15;2.90;;;1.90;;
40871;SDS011;26591;43.264;26.940;2022-07-11T07:34:41;5.43;;;1.83;;
40871;SDS011;26591;43.264;26.940;2022-07-11T07:37:06;2.03;;;1.77;;
40871;SDS011;26591;43.264;26.940;2022-07-11T07:39:32;4.13;;;1.90;;
40871;SDS011;26591;43.264;26.940;2022-07-11T07:41:58;5.32;;;1.60;;
40871;SDS011;26591;43.264;26.940;2022-07-11T07:44:24;3.20;;;2.05;;
40871;SDS011;26591;43.264;26.940;2022-07-11T07:46:50;4.18;;;1.80;;
40871;SDS011;26591;43.264;26.940;2022-07-11T07:49:15;3.95;;;1.90;;
40871;SDS011;26591;43.264;26.940;2022-07-11T07:51:41;2.95;;;1.88;;
40871;SDS011;26591;43.264;26.940;2022-07-11T07:54:07;4.40;;;1.67;;
40871;SDS011;26591;43.264;26.940;2022-07-11T07:56:32;3.45;;;1.40;;
40871;SDS011;26591;43.264;26.940;2022-07-11T07:58:58;2.95;;;1.63;;
40871;SDS011;26591;43.264;26.940;2022-07-11T08:01:23;3.67;;;1.80;;
40871;SDS011;26591;43.264;26.940;2022-07-11T08:04:05;2.83;;;1.60;;
40871;SDS011;26591;43.264;26.940;2022-07-11T08:06:32;4.35;;;1.70;;
40871;SDS011;26591;43.264;26.940;2022-07-11T08:08:58;3.20;;;1.85;;
40871;SDS011;26591;43.264;26.940;2022-07-11T08:11:24;3.75;;;1.70;;
40871;SDS011;26591;43.264;26.940;2022-07-11T08:13:50;4.95;;;1.80;;
40871;SDS011;26591;43.264;26.940;2022-07-11T08:16:16;12.15;;;2.50;;
40871;SDS011;26591;43.264;26.940;2022-07-11T08:18:42;4.15;;;1.67;;
40871;SDS011;26591;43.264;26.940;2022-07-11T08:21:08;6.18;;;1.67;;
40871;SDS011;26591;43.264;26.940;2022-07-11T08:23:34;2.65;;;1.80;;
40871;SDS011;26591;43.264;26.940;2022-07-11T08:26:00;5.47;;;1.67;;
40871;SDS011;26591;43.264;26.940;2022-07-11T08:28:26;5.13;;;1.50;;
40871;SDS011;26591;43.264;26.940;2022-07-11T08:30:51;4.13;;;1.70;;
40871;SDS011;26591;43.264;26.940;2022-07-11T08:33:17;2.70;;;1.50;;
40871;SDS011;26591;43.264;26.940;2022-07-11T08:35:43;5.32;;;1.70;;
40871;SDS011;26591;43.264;26.940;2022-07-11T08:38:08;4.18;;;1.63;;
40871;SDS011;26591;43.264;26.940;2022-07-11T08:40:34;3.28;;;1.52;;
40871;SDS011;26591;43.264;26.940;2022-07-11T08:42:59;5.95;;;1.63;;
40871;SDS011;26591;43.264;26.940;2022-07-11T08:45:30;7.75;;;1.75;;
40871;SDS011;26591;43.264;26.940;2022-07-11T08:47:57;4.63;;;1.70;;
40871;SDS011;26591;43.264;26.940;2022-07-11T08:50:25;2.88;;;1.63;;
40871;SDS011;26591;43.264;26.940;2022-07-11T08:52:56;5.78;;;1.45;;
40871;SDS011;26591;43.264;26.940;2022-07-11T08:55:23;2.72;;;1.58;;
40871;SDS011;26591;43.264;26.940;2022-07-11T08:57:49;3.17;;;1.33;;
40871;SDS011;26591;43.264;26.940;2022-07-11T09:00:15;3.20;;;1.40;;
40871;SDS011;26591;43.264;26.940;2022-07-11T09:02:42;4.05;;;1.65;;
40871;SDS011;26591;43.264;26.940;2022-07-11T09:05:10;5.13;;;1.50;;
40871;SDS011;26591;43.264;26.940;2022-07-11T09:07:45;7.10;;;1.73;;
40871;SDS011;26591;43.264;26.940;2022-07-11T09:10:12;5.97;;;2.00;;
40871;SDS011;26591;43.264;26.940;2022-07-11T09:12:57;5.10;;;1.50;;
40871;SDS011;26591;43.264;26.940;2022-07-11T09:20:54;5.57;;;1.60;;
40871;SDS011;26591;43.264;26.940;2022-07-11T09:23:40;2.60;;;1.50;;
40871;SDS011;26591;43.264;26.940;2022-07-11T09:26:25;4.50;;;1.38;;
40871;SDS011;26591;43.264;26.940;2022-07-11T09:28:59;2.78;;;1.40;;
40871;SDS011;26591;43.264;26.940;2022-07-11T09:31:29;3.33;;;1.52;;
40871;SDS011;26591;43.264;26.940;2022-07-11T09:34:03;4.50;;;1.60;;
40871;SDS011;26591;43.264;26.940;2022-07-11T09:39:06;4.53;;;1.45;;
40871;SDS011;26591;43.264;26.940;2022-07-11T09:41:34;2.30;;;1.27;;
40871;SDS011;26591;43.264;26.940;2022-07-11T09:46:36;3.90;;;1.58;;
40871;SDS011;26591;43.264;26.940;2022-07-11T09:49:03;2.85;;;1.40;;
40871;SDS011;26591;43.264;26.940;2022-07-11T09:51:30;3.42;;;1.40;;
40871;SDS011;26591;43.264;26.940;2022-07-11T09:53:57;2.88;;;1.65;;
40871;SDS011;26591;43.264;26.940;2022-07-11T09:58:58;2.60;;;1.40;;
40871;SDS011;26591;43.264;26.940;2022-07-11T10:01:28;2.25;;;1.40;;
40871;SDS011;26591;43.264;26.940;2022-07-11T10:03:54;4.05;;;1.90;;
40871;SDS011;26591;43.264;26.940;2022-07-11T10:06:20;3.72;;;1.50;;
40871;SDS011;26591;43.264;26.940;2022-07-11T10:08:47;3.95;;;1.90;;
40871;SDS011;26591;43.264;26.940;2022-07-11T10:11:14;4.60;;;1.33;;
40871;SDS011;26591;43.264;26.940;2022-07-11T10:13:40;1.95;;;1.20;;
40871;SDS011;26591;43.264;26.940;2022-07-11T10:24:17;2.20;;;1.02;;
40871;SDS011;26591;43.264;26.940;2022-07-11T10:29:39;1.33;;;1.10;;
40871;SDS011;26591;43.264;26.940;2022-07-11T10:32:18;2.45;;;1.13;;
40871;SDS011;26591;43.264;26.940;2022-07-11T10:34:44;2.63;;;1.25;;
40871;SDS011;26591;43.264;26.940;2022-07-11T10:37:12;1.80;;;1.13;;
40871;SDS011;26591;43.264;26.940;2022-07-11T10:39:39;2.58;;;1.00;;
40871;SDS011;26591;43.264;26.940;2022-07-11T10:42:21;5.80;;;1.27;;
40871;SDS011;26591;43.264;26.940;2022-07-11T10:44:48;4.03;;;1.13;;
40871;SDS011;26591;43.264;26.940;2022-07-11T10:53:10;2.95;;;1.30;;
40871;SDS011;26591;43.264;26.940;2022-07-11T10:58:42;1.75;;;0.93;;
40871;SDS011;26591;43.264;26.940;2022-07-11T11:01:11;2.00;;;0.60;;
40871;SDS011;26591;43.264;26.940;2022-07-11T11:03:39;4.25;;;1.05;;
40871;SDS011;26591;43.264;26.940;2022-07-11T11:06:05;3.05;;;1.20;;
40871;SDS011;26591;43.264;26.940;2022-07-11T11:13:55;4.15;;;1.10;;
40871;SDS011;26591;43.264;26.940;2022-07-11T11:16:41;2.13;;;0.90;;
40871;SDS011;26591;43.264;26.940;2022-07-11T11:19:07;5.43;;;1.00;;
40871;SDS011;26591;43.264;26.940;2022-07-11T11:22:00;4.85;;;1.25;;
40871;SDS011;26591;43.264;26.940;2022-07-11T11:24:28;2.45;;;0.85;;
40871;SDS011;26591;43.264;26.940;2022-07-11T11:26:54;1.60;;;0.85;;
40871;SDS011;26591;43.264;26.940;2022-07-11T11:29:25;3.00;;;1.02;;
40871;SDS011;26591;43.264;26.940;2022-07-11T11:31:55;2.47;;;1.20;;
40871;SDS011;26591;43.264;26.940;2022-07-11T11:34:22;5.63;;;0.90;;
40871;SDS011;26591;43.264;26.940;2022-07-11T11:36:55;5.15;;;1.38;;
40871;SDS011;26591;43.264;26.940;2022-07-11T11:39:27;4.82;;;1.00;;
40871;SDS011;26591;43.264;26.940;2022-07-11T11:42:11;1.85;;;0.88;;
40871;SDS011;26591;43.264;26.940;2022-07-11T11:44:51;5.07;;;1.00;;
40871;SDS011;26591;43.264;26.940;2022-07-11T11:47:21;2.10;;;0.90;;
40871;SDS011;26591;43.264;26.940;2022-07-11T11:49:47;2.13;;;0.90;;
40871;SDS011;26591;43.264;26.940;2022-07-11T11:52:14;2.80;;;1.27;;
40871;SDS011;26591;43.264;26.940;2022-07-11T11:54:41;2.42;;;1.00;;
40871;SDS011;26591;43.264;26.940;2022-07-11T11:57:07;2.67;;;1.05;;
40871;SDS011;26591;43.264;26.940;2022-07-11T11:59:36;1.77;;;0.90;;
40871;SDS011;26591;43.264;26.940;2022-07-11T12:02:03;5.28;;;1.02;;
40871;SDS011;26591;43.264;26.940;2022-07-11T12:04:30;4.80;;;1.00;;
40871;SDS011;26591;43.264;26.940;2022-07-11T12:07:01;2.80;;;0.80;;
40871;SDS011;26591;43.264;26.940;2022-07-11T12:09:28;2.33;;;1.30;;
40871;SDS011;26591;43.264;26.940;2022-07-11T12:12:19;3.35;;;1.15;;
40871;SDS011;26591;43.264;26.940;2022-07-11T12:15:05;2.43;;;1.63;;
40871;SDS011;26591;43.264;26.940;2022-07-11T12:17:32;7.57;;;1.90;;
40871;SDS011;26591;43.264;26.940;2022-07-11T12:19:57;4.55;;;1.13;;
40871;SDS011;26591;43.264;26.940;2022-07-11T12:22:23;4.15;;;1.20;;
40871;SDS011;26591;43.264;26.940;2022-07-11T12:24:51;5.47;;;1.30;;
40871;SDS011;26591;43.264;26.940;2022-07-11T12:27:19;4.30;;;1.13;;
40871;SDS011;26591;43.264;26.940;2022-07-11T12:29:46;5.15;;;1.15;;
40871;SDS011;26591;43.264;26.940;2022-07-11T12:32:18;4.28;;;0.90;;
40871;SDS011;26591;43.264;26.940;2022-07-11T12:34:47;7.28;;;1.38;;
40871;SDS011;26591;43.264;26.940;2022-07-11T12:37:15;9.55;;;1.30;;
40871;SDS011;26591;43.264;26.940;2022-07-11T12:39:49;5.50;;;0.90;;
40871;SDS011;26591;43.264;26.940;2022-07-11T12:45:05;2.83;;;0.80;;
40871;SDS011;26591;43.264;26.940;2022-07-11T12:47:33;5.38;;;0.73;;
40871;SDS011;26591;43.264;26.940;2022-07-11T12:50:34;6.45;;;1.13;;
40871;SDS011;26591;43.264;26.940;2022-07-11T12:52:54;2.75;;;0.80;;
40871;SDS011;26591;43.264;26.940;2022-07-11T12:55:22;2.50;;;0.70;;
40871;SDS011;26591;43.264;26.940;2022-07-11T13:00:28;2.58;;;1.13;;
40871;SDS011;26591;43.264;26.940;2022-07-11T13:02:55;4.90;;;0.82;;
40871;SDS011;26591;43.264;26.940;2022-07-11T13:05:21;2.75;;;0.80;;
40871;SDS011;26591;43.264;26.940;2022-07-11T13:07:46;2.65;;;0.80;;
40871;SDS011;26591;43.264;26.940;2022-07-11T13:10:30;3.38;;;0.60;;
40871;SDS011;26591;43.264;26.940;2022-07-11T13:13:15;5.35;;;0.90;;
40871;SDS011;26591;43.264;26.940;2022-07-11T13:15:46;8.13;;;0.70;;
40871;SDS011;26591;43.264;26.940;2022-07-11T13:18:13;4.47;;;0.75;;
40871;SDS011;26591;43.264;26.940;2022-07-11T13:20:39;1.45;;;0.68;;
40871;SDS011;26591;43.264;26.940;2022-07-11T13:23:05;3.05;;;0.68;;
40871;SDS011;26591;43.264;26.940;2022-07-11T13:25:32;2.72;;;0.68;;
40871;SDS011;26591;43.264;26.940;2022-07-11T13:27:59;6.15;;;0.70;;
40871;SDS011;26591;43.264;26.940;2022-07-11T13:30:25;6.95;;;0.88;;
40871;SDS011;26591;43.264;26.940;2022-07-11T13:32:57;3.50;;;0.70;;
40871;SDS011;26591;43.264;26.940;2022-07-11T13:35:24;3.03;;;0.70;;
40871;SDS011;26591;43.264;26.940;2022-07-11T13:37:49;3.70;;;0.77;;
40871;SDS011;26591;43.264;26.940;2022-07-11T13:40:18;2.88;;;0.90;;
40871;SDS011;26591;43.264;26.940;2022-07-11T13:42:45;2.65;;;0.60;;
40871;SDS011;26591;43.264;26.940;2022-07-11T13:45:14;2.10;;;0.68;;
40871;SDS011;26591;43.264;26.940;2022-07-11T13:47:40;2.85;;;0.60;;
40871;SDS011;26591;43.264;26.940;2022-07-11T13:50:06;10.18;;;0.60;;
40871;SDS011;26591;43.264;26.940;2022-07-11T13:52:31;3.33;;;0.60;;
40871;SDS011;26591;43.264;26.940;2022-07-11T13:54:57;3.28;;;0.57;;
40871;SDS011;26591;43.264;26.940;2022-07-11T13:57:24;4.15;;;0.68;;
40871;SDS011;26591;43.264;26.940;2022-07-11T13:59:49;7.72;;;1.10;;
40871;SDS011;26591;43.264;26.940;2022-07-11T14:02:15;4.85;;;0.75;;
40871;SDS011;26591;43.264;26.940;2022-07-11T14:04:41;8.57;;;0.93;;
40871;SDS011;26591;43.264;26.940;2022-07-11T14:07:07;4.18;;;0.70;;
40871;SDS011;26591;43.264;26.940;2022-07-11T14:09:34;3.97;;;1.67;;
40871;SDS011;26591;43.264;26.940;2022-07-11T14:12:00;3.20;;;1.20;;
40871;SDS011;26591;43.264;26.940;2022-07-11T14:14:26;3.72;;;0.77;;
40871;SDS011;26591;43.264;26.940;2022-07-11T14:16:52;2.92;;;0.60;;
40871;SDS011;26591;43.264;26.940;2022-07-11T14:19:18;3.05;;;0.60;;
40871;SDS011;26591;43.264;26.940;2022-07-11T14:21:45;3.17;;;0.60;;
40871;SDS011;26591;43.264;26.940;2022-07-11T14:24:10;3.63;;;0.50;;
40871;SDS011;26591;43.264;26.940;2022-07-11T14:26:36;1.30;;;0.68;;
40871;SDS011;26591;43.264;26.940;2022-07-11T14:29:03;10.00;;;0.77;;
40871;SDS011;26591;43.264;26.940;2022-07-11T14:31:30;2.38;;;0.73;;
40871;SDS011;26591;43.264;26.940;2022-07-11T14:33:57;1.17;;;0.45;;
40871;SDS011;26591;43.264;26.940;2022-07-11T14:36:24;3.00;;;0.85;;
40871;SDS011;26591;43.264;26.940;2022-07-11T14:38:52;2.08;;;0.80;;
40871;SDS011;26591;43.264;26.940;2022-07-11T14:41:17;6.75;;;1.35;;
40871;SDS011;26591;43.264;26.940;2022-07-11T14:43:44;1.05;;;0.52;;
40871;SDS011;26591;43.264;26.940;2022-07-11T14:46:11;3.38;;;0.90;;
40871;SDS011;26591;43.264;26.940;2022-07-11T14:48:37;3.78;;;0.60;;
40871;SDS011;26591;43.264;26.940;2022-07-11T14:51:03;1.33;;;0.47;;
40871;SDS011;26591;43.264;26.940;2022-07-11T14:53:30;2.80;;;0.98;;
40871;SDS011;26591;43.264;26.940;2022-07-11T14:55:56;4.47;;;0.68;;
40871;SDS011;26591;43.264;26.940;2022-07-11T14:58:25;2.70;;;0.60;;
40871;SDS011;26591;43.264;26.940;2022-07-11T15:00:50;3.08;;;0.80;;
40871;SDS011;26591;43.264;26.940;2022-07-11T15:03:17;2.80;;;0.65;;
40871;SDS011;26591;43.264;26.940;2022-07-11T15:06:02;7.82;;;0.90;;
40871;SDS011;26591;43.264;26.940;2022-07-11T15:08:29;2.53;;;0.70;;
40871;SDS011;26591;43.264;26.940;2022-07-11T15:11:13;2.50;;;0.70;;
40871;SDS011;26591;43.264;26.940;2022-07-11T15:13:57;7.38;;;1.27;;
40871;SDS011;26591;43.264;26.940;2022-07-11T15:16:23;3.78;;;0.63;;
40871;SDS011;26591;43.264;26.940;2022-07-11T15:18:51;3.55;;;0.85;;
40871;SDS011;26591;43.264;26.940;2022-07-11T15:21:17;3.33;;;0.57;;
40871;SDS011;26591;43.264;26.940;2022-07-11T15:23:43;3.10;;;0.70;;
40871;SDS011;26591;43.264;26.940;2022-07-11T15:26:09;3.97;;;0.90;;
40871;SDS011;26591;43.264;26.940;2022-07-11T15:28:35;4.32;;;0.63;;